MET'MAP v2.0
soon released !

Expected late october,
this new version will be
more efficient, smarter,
and hosted on a brand new
server x3 powerfull...
...and still free !


Not compatible ?
Try the mobile version !

LOG IN : | Subscribe | Disclaimer | Who is Orbifly ? |
ICAO code :
Legend : VFR Marginal VFR IFR Intensive IFR Very Intensive IFR
Visi :
Ceiling :
>= 8 km
>= 3000ft
5 to 8 km
1000 to 3000 ft
1500m to 5 km
500 to 1000 ft
800 to 1500m
200 to 500 ft
< 800m
< 200 ft

METAR - LKNA Náměšť Air Base - 29 Nov 2020 17:07 UTC - Data Source NOAA   


- Airport Elevation : 1548 ft
- No reported NOTAMs.


LKNA - Náměšť Air Base

Latest METAR recorded : 2015/08/11 08:00 LKNA 110800Z VRB02KT CAVOK 29/15 Q1017 NOSIG RMK BLU BLU
TAF TAF LKNA
Valid from the 29 at 12:00 until the 30 at 12:00 UTC


291100Z 2912/3012 32012KT 9999 BKN030
BECMG 2915/2917 BKN020
TEMPO 2918/3010 BKN015
PROB30
TEMPO 2919/3005 4000 SN BKN010
TEMPO 3010/3012 31006KT BKN030

Source NOAA


MET'MAP, your aeronautical weather chart ! - Copyright ORBIFLY December 2007

Programming & Development : Alexandra Zaïnal
Co-Developer : Marc-Olivier Méhu
Technical & hardware support : Manuel Goepfert
Concept & Financing : Baudouin d'Aumeries